Time;durP1;ratioP1;P1;durP2;ratioP2;P2;SDS_P1;SDS_P2;PMS_P1;PMS_P2;Temp;Humidity;BMP_temperature;BMP_pressure;BME280_temperature;BME280_humidity;BME280_pressure;Samples;Min_cycle;Max_cycle;Signal;HPM_P1;HPM_P2
2021/05/08 00:01:17;;;;;;;3.13;1.40;;;17.70;52.00;;;;;;5092267;28;20024;-75
2021/05/08 00:03:43;;;;;;;3.08;1.77;;;17.70;52.00;;;;;;5092441;28;20048;-75
2021/05/08 00:06:11;;;;;;;4.57;1.67;;;17.70;52.00;;;;;;5091943;28;20055;-75
2021/05/08 00:08:36;;;;;;;3.53;1.70;;;17.60;52.00;;;;;;5093335;28;20476;-75
2021/05/08 00:11:02;;;;;;;3.85;1.67;;;17.70;52.00;;;;;;5092963;28;20032;-75
2021/05/08 00:13:28;;;;;;;3.55;1.88;;;17.60;52.50;;;;;;5092902;28;20039;-75
2021/05/08 00:15:54;;;;;;;3.85;1.85;;;17.60;52.00;;;;;;5091238;28;20078;-75
2021/05/08 00:18:19;;;;;;;3.53;1.95;;;17.60;51.90;;;;;;5092372;28;20476;-75
2021/05/08 00:20:45;;;;;;;2.70;1.75;;;17.60;52.00;;;;;;5090816;28;20450;-75
2021/05/08 00:23:11;;;;;;;3.65;1.77;;;17.60;51.90;;;;;;5092379;28;20438;-75
2021/05/08 00:25:36;;;;;;;4.68;1.85;;;17.60;51.90;;;;;;5092878;28;20464;-75
2021/05/08 00:28:02;;;;;;;6.70;1.52;;;17.60;51.80;;;;;;5092575;28;20460;-75
2021/05/08 00:30:28;;;;;;;5.75;1.92;;;17.60;51.80;;;;;;5092326;28;20024;-75
2021/05/08 00:32:54;;;;;;;6.82;2.42;;;17.50;51.80;;;;;;5090777;28;20126;-75
2021/05/08 00:35:19;;;;;;;4.25;1.67;;;17.50;51.80;;;;;;5091839;28;20040;-75
2021/05/08 00:37:45;;;;;;;3.65;1.90;;;17.50;51.70;;;;;;5091496;28;20024;-74
2021/05/08 00:40:11;;;;;;;5.53;2.10;;;17.50;51.80;;;;;;5092377;28;20488;-74
2021/05/08 00:42:37;;;;;;;4.40;2.20;;;17.50;51.70;;;;;;5091688;28;20119;-74
2021/05/08 00:45:04;;;;;;;4.85;2.05;;;17.50;51.80;;;;;;5092193;28;20102;-74
2021/05/08 00:47:30;;;;;;;5.03;2.05;;;17.50;51.70;;;;;;5091029;28;20521;-75
2021/05/08 00:49:56;;;;;;;5.43;2.20;;;17.50;51.70;;;;;;5091804;28;20507;-75
2021/05/08 00:52:21;;;;;;;4.93;1.95;;;17.50;51.70;;;;;;5090392;28;20115;-74
2021/05/08 00:54:47;;;;;;;3.65;1.60;;;17.40;51.60;;;;;;5091226;28;20117;-74
2021/05/08 00:57:13;;;;;;;3.45;1.50;;;17.40;51.60;;;;;;5091317;28;20032;-74
2021/05/08 00:59:39;;;;;;;3.20;1.90;;;17.40;51.60;;;;;;5091468;28;20173;-74
2021/05/08 01:02:05;;;;;;;4.72;1.90;;;17.40;51.50;;;;;;5090732;28;20031;-74
2021/05/08 01:04:32;;;;;;;3.83;1.85;;;17.40;51.50;;;;;;5091927;28;20032;-75
2021/05/08 01:06:59;;;;;;;5.05;2.08;;;17.40;51.50;;;;;;5091508;28;20020;-74
2021/05/08 01:09:25;;;;;;;4.43;1.60;;;17.40;51.40;;;;;;5091861;28;20077;-74
2021/05/08 01:11:51;;;;;;;2.80;1.63;;;17.40;51.50;;;;;;5090904;28;20028;-74
2021/05/08 01:14:18;;;;;;;4.57;1.92;;;17.40;51.50;;;;;;5091124;28;20024;-74
2021/05/08 01:16:44;;;;;;;3.88;2.10;;;17.40;51.50;;;;;;5090414;28;20449;-73
2021/05/08 01:19:14;;;;;;;5.10;2.28;;;17.30;51.50;;;;;;5090253;28;20074;-74
2021/05/08 01:21:40;;;;;;;3.10;1.77;;;17.30;51.50;;;;;;5090200;28;20032;-75
2021/05/08 01:24:06;;;;;;;4.15;1.80;;;17.30;51.40;;;;;;5091919;28;20031;-75
2021/05/08 01:26:32;;;;;;;4.55;1.90;;;17.30;51.40;;;;;;5091493;28;20028;-75
2021/05/08 01:28:58;;;;;;;3.83;1.83;;;17.30;51.30;;;;;;5090369;28;20028;-75
2021/05/08 01:31:24;;;;;;;5.30;2.08;;;17.30;51.40;;;;;;5090836;28;20028;-74
2021/05/08 01:33:50;;;;;;;4.22;1.88;;;17.30;51.30;;;;;;5090548;28;20090;-73
2021/05/08 01:36:16;;;;;;;3.17;1.88;;;17.30;51.40;;;;;;5089622;28;20506;-73
2021/05/08 01:38:42;;;;;;;3.20;1.92;;;17.30;51.30;;;;;;5091178;28;20021;-74
2021/05/08 01:41:11;;;;;;;3.60;1.90;;;17.30;51.40;;;;;;5090928;28;20020;-74
2021/05/08 01:43:37;;;;;;;3.42;1.95;;;17.30;51.40;;;;;;5091128;28;20594;-74
2021/05/08 01:46:03;;;;;;;5.85;2.17;;;17.30;51.30;;;;;;5090830;28;20028;-74
2021/05/08 01:48:29;;;;;;;3.50;1.80;;;17.30;51.30;;;;;;5090882;28;20047;-75
2021/05/08 01:50:55;;;;;;;3.80;1.85;;;17.30;51.30;;;;;;5090640;28;20032;-75
2021/05/08 01:53:21;;;;;;;4.20;1.77;;;17.20;51.30;;;;;;5090536;28;20032;-75
2021/05/08 01:55:48;;;;;;;4.55;1.75;;;17.20;51.30;;;;;;5090174;28;20043;-75
2021/05/08 01:58:13;;;;;;;4.72;2.05;;;17.20;51.30;;;;;;5090565;28;20446;-75
2021/05/08 02:00:42;;;;;;;4.93;2.10;;;17.20;51.30;;;;;;5090543;28;20107;-75
2021/05/08 02:03:08;;;;;;;3.97;2.33;;;17.20;51.30;;;;;;5091372;28;20070;-74
2021/05/08 02:05:36;;;;;;;4.53;2.10;;;17.20;51.30;;;;;;5095613;28;20085;-75
2021/05/08 02:08:04;;;;;;;5.00;2.53;;;17.20;51.30;;;;;;5094873;28;20509;-75
2021/05/08 02:10:34;;;;;;;4.68;2.25;;;17.20;51.30;;;;;;5095055;28;20103;-75
2021/05/08 02:13:01;;;;;;;6.28;2.75;;;17.10;51.30;;;;;;5094251;28;20032;-74
2021/05/08 02:15:26;;;;;;;5.25;2.85;;;17.10;51.30;;;;;;5094640;28;20037;-75
2021/05/08 02:17:52;;;;;;;4.53;2.55;;;17.10;51.30;;;;;;5094334;28;20032;-75
2021/05/08 02:20:26;;;;;;;5.53;2.80;;;17.10;51.30;;;;;;5094447;28;20099;-74
2021/05/08 02:22:54;;;;;;;6.03;2.50;;;17.10;51.30;;;;;;5092984;28;20170;-74
2021/05/08 02:25:19;;;;;;;5.13;2.45;;;17.10;51.20;;;;;;5094330;28;20069;-74
2021/05/08 02:27:45;;;;;;;6.85;3.60;;;17.10;51.20;;;;;;5094433;28;20059;-75
2021/05/08 02:30:14;;;;;;;6.65;3.25;;;17.10;51.30;;;;;;5094489;28;20491;-74
2021/05/08 02:32:41;;;;;;;5.28;2.83;;;17.00;51.20;;;;;;5093418;28;20480;-74
2021/05/08 02:35:08;;;;;;;6.88;3.28;;;17.00;51.20;;;;;;5093301;28;20028;-73
2021/05/08 02:37:34;;;;;;;6.22;2.60;;;17.00;51.20;;;;;;5094776;28;20028;-74
2021/05/08 02:40:01;;;;;;;6.85;3.10;;;17.00;51.20;;;;;;5093751;28;20028;-74
2021/05/08 02:42:27;;;;;;;6.85;2.92;;;17.00;51.20;;;;;;5093882;28;20028;-74
2021/05/08 02:44:52;;;;;;;5.07;2.95;;;17.00;51.10;;;;;;5094334;28;20054;-74
2021/05/08 02:47:19;;;;;;;6.88;3.20;;;17.00;51.10;;;;;;5093998;28;20023;-75
2021/05/08 02:49:49;;;;;;;5.55;2.60;;;17.00;51.10;;;;;;5094345;28;20024;-75
2021/05/08 02:52:16;;;;;;;6.88;2.92;;;16.90;51.00;;;;;;5092716;28;20031;-75
2021/05/08 02:54:41;;;;;;;8.05;3.15;;;17.00;51.10;;;;;;5093314;28;20499;-74
2021/05/08 02:57:07;;;;;;;6.90;3.40;;;17.00;51.10;;;;;;5094163;28;20035;-74
2021/05/08 02:59:33;;;;;;;6.05;2.72;;;17.00;51.10;;;;;;5093794;28;20062;-74
2021/05/08 03:02:00;;;;;;;6.88;2.80;;;16.90;51.10;;;;;;5093310;28;20046;-75
2021/05/08 03:04:26;;;;;;;5.78;2.97;;;16.90;51.10;;;;;;5092882;28;20028;-75
2021/05/08 03:06:51;;;;;;;5.03;2.13;;;16.90;51.10;;;;;;5093833;28;20047;-74
2021/05/08 03:09:17;;;;;;;5.90;2.85;;;16.90;51.20;;;;;;5092922;28;20360;-74
2021/05/08 03:11:43;;;;;;;4.50;2.35;;;16.90;51.20;;;;;;5093527;28;20365;-74
2021/05/08 03:14:09;;;;;;;6.18;2.85;;;16.90;51.10;;;;;;5093197;28;20020;-74
2021/05/08 03:16:36;;;;;;;7.22;2.55;;;16.90;51.10;;;;;;5093679;28;20051;-74
2021/05/08 03:19:02;;;;;;;5.22;2.60;;;16.90;51.10;;;;;;5094227;28;20491;-75
2021/05/08 03:21:28;;;;;;;6.63;2.75;;;16.90;51.10;;;;;;5093953;28;20020;-74
2021/05/08 03:23:54;;;;;;;4.82;2.88;;;16.90;51.10;;;;;;5092893;28;20028;-75
2021/05/08 03:26:19;;;;;;;4.63;2.33;;;16.80;51.00;;;;;;5093424;28;20024;-74
2021/05/08 03:28:45;;;;;;;7.10;2.85;;;16.90;51.10;;;;;;5093000;28;20028;-74
2021/05/08 03:31:10;;;;;;;5.78;2.80;;;16.80;51.00;;;;;;5092909;28;20099;-74
2021/05/08 03:33:36;;;;;;;4.38;1.77;;;16.80;51.00;;;;;;5093191;28;20386;-74
2021/05/08 03:36:02;;;;;;;6.82;2.75;;;16.80;51.00;;;;;;5093830;28;20403;-74
2021/05/08 03:38:28;;;;;;;5.43;2.67;;;16.80;51.00;;;;;;5092694;28;20465;-74
2021/05/08 03:40:53;;;;;;;4.03;2.42;;;16.80;51.00;;;;;;5093188;28;20203;-74
2021/05/08 03:43:19;;;;;;;4.82;2.05;;;16.80;51.00;;;;;;5093192;28;20031;-74
2021/05/08 03:45:44;;;;;;;6.43;2.47;;;16.80;51.00;;;;;;5091395;28;20103;-74
2021/05/08 03:48:10;;;;;;;6.07;2.80;;;16.80;51.00;;;;;;5093460;28;20498;-74
2021/05/08 03:50:36;;;;;;;6.00;2.83;;;16.70;51.00;;;;;;5093655;28;20026;-74
2021/05/08 03:53:01;;;;;;;7.85;2.50;;;16.80;51.00;;;;;;5092532;28;20039;-73
2021/05/08 03:55:27;;;;;;;6.15;2.78;;;16.70;51.00;;;;;;5092791;28;20054;-73
2021/05/08 03:57:52;;;;;;;4.50;2.35;;;16.70;50.90;;;;;;5092541;28;20036;-74
2021/05/08 04:00:18;;;;;;;4.43;2.53;;;16.80;51.00;;;;;;5092846;28;20024;-74
2021/05/08 04:02:44;;;;;;;5.15;2.28;;;16.70;51.00;;;;;;5092418;28;20032;-74
2021/05/08 04:05:10;;;;;;;5.03;2.20;;;16.70;51.00;;;;;;5092238;28;20095;-74
2021/05/08 04:07:36;;;;;;;3.88;2.38;;;16.70;51.10;;;;;;5093035;28;20080;-74
2021/05/08 04:10:02;;;;;;;5.80;2.63;;;16.70;51.10;;;;;;5091002;28;20036;-74
2021/05/08 04:12:28;;;;;;;3.75;1.90;;;16.70;51.10;;;;;;5092221;28;20020;-74
2021/05/08 04:14:56;;;;;;;5.53;2.40;;;16.70;51.10;;;;;;5092502;28;20393;-74
2021/05/08 04:17:22;;;;;;;5.05;2.33;;;16.70;51.10;;;;;;5092823;28;20020;-74
2021/05/08 04:19:47;;;;;;;5.65;2.05;;;16.70;51.10;;;;;;5092030;28;20111;-74
2021/05/08 04:22:13;;;;;;;4.97;2.08;;;16.70;51.10;;;;;;5091915;28;20032;-74
2021/05/08 04:24:39;;;;;;;4.25;1.88;;;16.60;51.00;;;;;;5092395;28;20046;-74
2021/05/08 04:27:04;;;;;;;4.28;1.88;;;16.60;51.10;;;;;;5091998;28;20028;-74
2021/05/08 04:29:30;;;;;;;5.03;2.28;;;16.60;51.00;;;;;;5092094;28;20020;-74
2021/05/08 04:31:56;;;;;;;3.00;1.80;;;16.60;51.10;;;;;;5091308;28;20020;-74
2021/05/08 04:34:21;;;;;;;4.07;1.73;;;16.60;51.10;;;;;;5091820;28;20059;-74
2021/05/08 04:36:47;;;;;;;4.22;1.95;;;16.60;51.10;;;;;;5092150;28;20047;-74
2021/05/08 04:39:13;;;;;;;4.57;2.30;;;16.60;51.10;;;;;;5091886;28;20123;-74
2021/05/08 04:41:39;;;;;;;5.35;2.17;;;16.60;51.10;;;;;;5091769;28;20020;-74
2021/05/08 04:44:05;;;;;;;3.65;1.88;;;16.60;51.10;;;;;;5091790;28;20018;-74
2021/05/08 04:46:31;;;;;;;5.20;2.00;;;16.60;51.10;;;;;;5092275;28;20545;-74
2021/05/08 04:48:57;;;;;;;4.03;2.08;;;16.60;51.10;;;;;;5090567;28;20054;-74
2021/05/08 04:51:22;;;;;;;2.92;1.95;;;16.60;51.10;;;;;;5092125;28;20502;-74
2021/05/08 04:53:48;;;;;;;4.25;1.70;;;16.60;51.10;;;;;;5090902;28;20108;-74
2021/05/08 04:56:17;;;;;;;4.55;2.10;;;16.60;51.10;;;;;;5091778;28;20101;-74
2021/05/08 04:58:43;;;;;;;3.72;1.70;;;16.60;51.10;;;;;;5091290;28;20149;-74
2021/05/08 05:01:10;;;;;;;4.18;1.83;;;16.50;51.10;;;;;;5090831;28;20066;-74
2021/05/08 05:03:36;;;;;;;4.43;2.13;;;16.60;51.70;;;;;;5091395;28;20107;-74
2021/05/08 05:06:04;;;;;;;4.28;1.58;;;16.50;51.10;;;;;;5092129;28;20480;-74
2021/05/08 05:08:30;;;;;;;3.80;1.75;;;16.50;51.70;;;;;;5091557;28;20098;-74
2021/05/08 05:10:55;;;;;;;3.50;1.77;;;16.50;51.10;;;;;;5091393;28;20055;-74
2021/05/08 05:13:22;;;;;;;3.22;1.52;;;16.50;51.10;;;;;;5090948;28;20028;-74
2021/05/08 05:15:49;;;;;;;3.53;1.58;;;16.50;51.20;;;;;;5091286;28;20035;-74
2021/05/08 05:18:14;;;;;;;2.38;1.48;;;16.50;51.20;;;;;;5091417;28;20028;-74
2021/05/08 05:20:40;;;;;;;3.00;1.45;;;16.50;51.20;;;;;;5091385;28;20399;-74
2021/05/08 05:23:07;;;;;;;3.50;1.67;;;16.50;51.20;;;;;;5091062;28;20771;-74
2021/05/08 05:25:32;;;;;;;3.78;1.73;;;16.50;51.20;;;;;;5091678;28;20012;-74
2021/05/08 05:27:58;;;;;;;3.00;1.70;;;16.50;51.20;;;;;;5089244;28;20552;-75
2021/05/08 05:30:24;;;;;;;3.28;1.50;;;16.50;51.20;;;;;;5089546;28;20035;-75
2021/05/08 05:32:49;;;;;;;2.92;1.30;;;16.50;51.20;;;;;;5090632;28;20039;-75
2021/05/08 06:08:12;;;;;;;4.85;1.58;;;16.30;52.30;;;;;;5108873;27;20335;-71
2021/05/08 06:10:38;;;;;;;3.50;1.38;;;16.30;52.80;;;;;;5108933;28;20042;-72
2021/05/08 06:13:04;;;;;;;4.30;1.30;;;16.30;52.70;;;;;;5105435;28;20102;-73
2021/05/08 06:15:29;;;;;;;5.20;1.63;;;16.30;52.70;;;;;;5108986;28;20034;-74
2021/05/08 06:17:57;;;;;;;3.13;1.83;;;16.30;52.70;;;;;;5107909;28;20031;-73
2021/05/08 06:20:23;;;;;;;4.57;1.45;;;16.40;52.80;;;;;;5106874;28;20015;-72
2021/05/08 06:22:48;;;;;;;3.58;2.05;;;16.40;52.70;;;;;;5102005;28;20021;-72
2021/05/08 06:25:14;;;;;;;5.68;1.73;;;16.40;52.80;;;;;;5088317;28;20033;-72
2021/05/08 06:27:40;;;;;;;7.40;1.35;;;16.40;52.80;;;;;;5087743;28;20032;-71
2021/05/08 06:30:07;;;;;;;2.35;1.23;;;16.40;52.70;;;;;;5097395;28;20052;-73
2021/05/08 06:32:33;;;;;;;3.05;1.50;;;16.40;52.70;;;;;;5094640;28;20491;-73
2021/05/08 06:34:58;;;;;;;6.50;2.05;;;16.40;52.70;;;;;;5087347;28;20038;-72
2021/05/08 06:37:24;;;;;;;5.45;1.67;;;16.40;52.70;;;;;;5088101;28;20031;-72
2021/05/08 06:39:50;;;;;;;10.10;1.88;;;16.50;52.70;;;;;;5087987;28;20096;-72
2021/05/08 06:42:15;;;;;;;3.88;1.83;;;16.50;52.80;;;;;;5088929;28;20472;-73
2021/05/08 06:44:41;;;;;;;4.28;1.65;;;16.50;52.70;;;;;;5106314;28;20077;-72
2021/05/08 06:47:14;;;;;;;3.20;1.45;;;16.50;52.70;;;;;;5103351;28;20029;-72
2021/05/08 06:49:40;;;;;;;4.07;1.27;;;16.50;52.70;;;;;;5085736;28;20527;-73
2021/05/08 06:52:05;;;;;;;3.15;1.50;;;16.50;52.70;;;;;;5088502;28;20099;-72
2021/05/08 06:54:31;;;;;;;3.13;1.50;;;16.50;52.70;;;;;;5089868;28;20111;-72
2021/05/08 06:56:56;;;;;;;4.07;1.80;;;16.50;52.70;;;;;;5087716;28;20056;-73
2021/05/08 06:59:22;;;;;;;4.65;1.88;;;16.60;52.70;;;;;;5087235;28;20134;-73
2021/05/08 07:01:48;;;;;;;5.07;1.33;;;16.60;52.70;;;;;;5099943;28;20478;-73
2021/05/08 07:04:13;;;;;;;3.20;1.45;;;16.60;52.70;;;;;;5092681;28;20021;-73
2021/05/08 07:06:39;;;;;;;5.40;1.50;;;16.60;52.70;;;;;;5091117;28;20119;-73
2021/05/08 07:09:05;;;;;;;2.58;1.40;;;16.60;52.70;;;;;;5098211;28;20100;-74
2021/05/08 07:11:30;;;;;;;3.38;1.35;;;16.60;52.60;;;;;;5087398;28;20081;-74
2021/05/08 07:13:56;;;;;;;14.77;1.67;;;16.60;52.50;;;;;;5081041;28;20771;-76
2021/05/08 07:16:22;;;;;;;1.95;1.05;;;16.60;52.70;;;;;;5087472;28;20029;-76
2021/05/08 07:18:47;;;;;;;2.70;1.40;;;16.60;52.60;;;;;;5058549;28;20167;-75
2021/05/08 07:21:13;;;;;;;2.88;1.10;;;16.70;52.70;;;;;;5053427;28;20057;-73
2021/05/08 07:23:39;;;;;;;2.03;1.38;;;16.70;52.90;;;;;;5073398;28;20047;-74
2021/05/08 07:26:05;;;;;;;2.45;1.45;;;16.70;52.80;;;;;;5093887;28;20028;-74
2021/05/08 07:28:30;;;;;;;3.05;1.20;;;16.70;52.90;;;;;;5070606;28;20044;-75
2021/05/08 07:30:56;;;;;;;3.50;1.15;;;16.70;52.80;;;;;;5077273;28;20359;-76
2021/05/08 07:33:23;;;;;;;4.85;1.30;;;16.70;52.80;;;;;;5080109;28;20056;-75
2021/05/08 07:35:50;;;;;;;2.20;1.10;;;16.70;52.90;;;;;;5093097;28;20523;-77
2021/05/08 07:38:16;;;;;;;2.63;1.10;;;16.70;52.80;;;;;;5091790;28;20110;-78
2021/05/08 07:40:42;;;;;;;2.20;0.98;;;16.70;52.80;;;;;;5083698;28;20027;-77
2021/05/08 07:43:09;;;;;;;3.75;1.48;;;16.70;52.90;;;;;;5071851;28;20392;-79
2021/05/08 07:45:36;;;;;;;2.70;1.40;;;16.70;53.20;;;;;;5072751;28;20027;-74
2021/05/08 07:48:01;;;;;;;4.68;1.45;;;16.80;53.60;;;;;;5073447;28;20508;-73
2021/05/08 07:50:28;;;;;;;5.40;1.52;;;16.90;53.40;;;;;;5071622;28;20086;-74
2021/05/08 07:52:54;;;;;;;3.55;1.38;;;16.90;53.30;;;;;;5071702;28;20028;-74
2021/05/08 07:55:20;;;;;;;4.13;1.42;;;17.00;53.40;;;;;;5072488;28;20119;-74
2021/05/08 07:57:46;;;;;;;2.55;1.10;;;17.00;53.60;;;;;;5071408;28;20020;-74
2021/05/08 08:00:13;;;;;;;4.28;1.33;;;17.10;54.00;;;;;;5071252;28;20036;-74
2021/05/08 08:02:39;;;;;;;3.75;1.30;;;17.20;53.90;;;;;;5076345;28;20020;-76
2021/05/08 08:05:07;;;;;;;6.18;1.42;;;17.30;54.00;;;;;;5073196;28;20075;-75
2021/05/08 08:07:33;;;;;;;4.07;1.40;;;17.40;54.30;;;;;;5054172;28;20424;-74
2021/05/08 08:09:59;;;;;;;4.05;1.45;;;17.50;54.60;;;;;;5091132;28;20483;-75
2021/05/08 08:12:25;;;;;;;6.75;1.70;;;17.50;54.40;;;;;;5091339;28;20070;-75
2021/05/08 08:14:51;;;;;;;5.45;2.55;;;17.60;54.60;;;;;;5083847;28;20400;-74
2021/05/08 08:17:17;;;;;;;4.93;1.95;;;17.70;54.90;;;;;;5072621;28;20111;-75
2021/05/08 08:19:47;;;;;;;3.80;1.85;;;17.70;54.70;;;;;;5090059;28;20472;-76
2021/05/08 08:22:16;;;;;;;3.10;1.60;;;17.80;54.60;;;;;;5090903;28;20016;-77
2021/05/08 08:24:43;;;;;;;7.82;1.80;;;17.80;54.20;;;;;;5092061;28;20024;-76
2021/05/08 08:27:09;;;;;;;4.57;1.55;;;17.90;54.10;;;;;;5086242;28;20032;-76
2021/05/08 08:29:35;;;;;;;4.20;1.65;;;18.00;54.70;;;;;;5081514;28;20037;-75
2021/05/08 08:32:01;;;;;;;6.72;1.83;;;18.10;54.20;;;;;;5072059;28;20033;-77
2021/05/08 08:34:26;;;;;;;5.75;1.33;;;18.20;53.80;;;;;;5072789;28;20116;-73
2021/05/08 08:36:52;;;;;;;7.55;1.27;;;18.20;53.60;;;;;;5071839;28;20496;-74
2021/05/08 08:39:18;;;;;;;4.65;1.33;;;18.20;53.50;;;;;;5075295;28;20484;-75
2021/05/08 08:41:44;;;;;;;2.75;1.25;;;18.20;53.40;;;;;;5071279;28;20111;-75
2021/05/08 08:44:10;;;;;;;5.43;1.45;;;18.20;53.30;;;;;;5072117;28;20042;-74
2021/05/08 08:46:43;;;;;;;7.93;1.15;;;18.40;53.30;;;;;;5070616;28;20032;-74
2021/05/08 08:49:10;;;;;;;3.67;1.67;;;18.40;53.50;;;;;;5068037;28;20017;-74
2021/05/08 08:51:36;;;;;;;6.60;1.48;;;18.50;53.60;;;;;;5070756;28;20510;-75
2021/05/08 08:54:02;;;;;;;9.85;1.63;;;18.60;53.80;;;;;;5069114;28;20012;-75
2021/05/08 08:56:34;;;;;;;10.68;1.50;;;18.70;54.50;;;;;;5070551;28;20032;-74
2021/05/08 08:59:11;;;;;;;8.73;1.65;;;18.80;54.70;;;;;;5070303;28;20029;-74
2021/05/08 09:01:37;;;;;;;4.57;1.50;;;18.90;54.10;;;;;;5068150;28;20024;-74
2021/05/08 09:04:03;;;;;;;3.08;1.05;;;18.90;53.90;;;;;;5070954;28;20032;-74
2021/05/08 09:06:29;;;;;;;1.70;0.93;;;18.90;53.60;;;;;;5069994;28;20476;-74
2021/05/08 09:08:57;;;;;;;3.30;1.15;;;18.90;53.50;;;;;;5069818;28;20069;-74
2021/05/08 09:11:24;;;;;;;4.20;1.65;;;19.00;53.50;;;;;;5070149;28;20021;-74
2021/05/08 09:14:20;;;;;;;3.75;1.23;;;19.00;53.50;;;;;;5069912;28;20044;-73
2021/05/08 09:17:15;;;;;;;3.25;0.90;;;19.10;53.30;;;;;;5051447;28;20415;-73
2021/05/08 09:19:54;;;;;;;3.78;1.17;;;19.10;53.20;;;;;;5059623;28;20565;-73
2021/05/08 09:22:28;;;;;;;2.53;0.63;;;19.10;53.10;;;;;;5091863;28;20031;-76
2021/05/08 09:24:59;;;;;;;5.30;1.05;;;19.20;53.20;;;;;;5083216;28;20024;-75
2021/05/08 09:27:34;;;;;;;6.05;0.80;;;19.30;53.60;;;;;;5069461;28;20051;-76
2021/05/08 09:30:10;;;;;;;4.38;1.00;;;19.40;53.10;;;;;;5070482;28;20101;-77
2021/05/08 09:32:45;;;;;;;4.55;1.20;;;19.40;53.10;;;;;;5077684;28;20035;-77
2021/05/08 09:35:27;;;;;;;3.08;0.77;;;19.40;53.00;;;;;;5083456;28;20497;-77
2021/05/08 09:38:29;;;;;;;4.05;1.30;;;19.40;53.00;;;;;;5073194;28;20078;-76
2021/05/08 09:40:55;;;;;;;4.25;1.00;;;19.40;52.90;;;;;;5047702;28;20086;-77
2021/05/08 09:43:23;;;;;;;4.75;1.17;;;19.30;52.80;;;;;;5084596;28;20392;-77
2021/05/08 09:45:53;;;;;;;2.95;0.98;;;19.30;52.80;;;;;;5071904;28;20078;-76
2021/05/08 09:48:27;;;;;;;6.72;0.90;;;19.30;52.80;;;;;;5075643;28;20032;-78
2021/05/08 09:50:56;;;;;;;3.13;1.10;;;19.30;52.70;;;;;;5080333;28;20009;-77
2021/05/08 09:53:32;;;;;;;5.82;1.25;;;19.30;52.70;;;;;;5084640;28;20028;-76
2021/05/08 09:55:57;;;;;;;;;;;19.30;52.80;;;;;;5073780;28;20056;-78
2021/05/08 09:58:25;;;;;;;2.33;1.00;;;19.20;52.70;;;;;;5083853;28;19962;-79
2021/05/08 10:00:52;;;;;;;7.00;1.20;;;19.20;52.70;;;;;;5081170;28;20439;-77
2021/05/08 10:03:20;;;;;;;8.20;1.50;;;19.20;52.80;;;;;;5079577;28;20050;-77
2021/05/08 10:05:57;;;;;;;3.83;1.00;;;19.20;53.80;;;;;;5072076;28;20043;-78
2021/05/08 10:08:23;;;;;;;3.40;1.20;;;19.20;53.00;;;;;;5077261;28;20024;-80
2021/05/08 10:10:49;;;;;;;4.82;1.35;;;19.20;53.30;;;;;;5084754;28;20047;-77
2021/05/08 10:13:16;;;;;;;2.28;1.20;;;19.20;53.60;;;;;;5082737;28;20398;-78
2021/05/08 10:15:42;;;;;;;6.13;1.67;;;19.20;53.00;;;;;;5071877;28;20027;-78
2021/05/08 10:18:12;;;;;;;2.55;1.17;;;19.20;53.00;;;;;;5086753;28;20051;-77
2021/05/08 10:20:39;;;;;;;5.95;1.00;;;19.30;53.10;;;;;;5076790;28;20483;-78
2021/05/08 10:23:12;;;;;;;7.63;1.25;;;19.20;53.10;;;;;;5086452;28;20070;-75
2021/05/08 10:25:39;;;;;;;7.13;0.90;;;19.30;53.30;;;;;;5073683;28;20021;-75
2021/05/08 10:28:06;;;;;;;3.45;1.48;;;19.30;53.20;;;;;;5057282;28;20089;-75
2021/05/08 10:30:33;;;;;;;3.03;1.33;;;19.30;53.20;;;;;;5085875;28;20387;-76
2021/05/08 10:32:59;;;;;;;2.85;1.10;;;19.30;53.20;;;;;;5079027;28;20035;-76
2021/05/08 10:35:40;;;;;;;2.55;1.20;;;19.30;53.50;;;;;;5084644;28;20020;-74
2021/05/08 10:40:55;;;;;;;4.03;1.20;;;19.20;53.40;;;;;;5078926;28;20024;-72
2021/05/08 10:43:52;;;;;;;3.20;1.25;;;19.20;53.30;;;;;;5074833;28;20381;-73
2021/05/08 10:46:20;;;;;;;4.20;1.00;;;19.30;53.50;;;;;;5064386;28;20028;-73
2021/05/08 10:49:07;;;;;;;5.45;0.98;;;19.40;53.50;;;;;;5079108;28;20036;-73
2021/05/08 10:51:55;;;;;;;5.40;1.30;;;19.30;53.60;;;;;;5085947;28;20104;-78
2021/05/08 10:54:45;;;;;;;1.70;0.88;;;19.40;54.00;;;;;;5068806;28;20102;-77
2021/05/08 10:57:20;;;;;;;2.95;0.75;;;19.50;54.00;;;;;;5081538;28;20178;-78
2021/05/08 11:00:04;;;;;;;2.20;1.00;;;19.60;54.20;;;;;;5090071;28;20016;-78
2021/05/08 11:02:44;;;;;;;5.22;1.20;;;19.70;54.10;;;;;;5080459;28;20488;-78
2021/05/08 11:05:31;;;;;;;5.85;1.10;;;19.80;54.30;;;;;;5079585;28;20029;-81
2021/05/08 11:07:58;;;;;;;2.35;1.23;;;19.80;54.50;;;;;;5089694;28;20059;-81
2021/05/08 11:10:33;;;;;;;4.13;1.40;;;19.80;54.50;;;;;;5079195;28;20107;-81
2021/05/08 11:13:11;;;;;;;5.20;1.13;;;19.80;54.50;;;;;;5090108;28;20034;-79
2021/05/08 11:15:52;;;;;;;4.88;1.23;;;19.80;54.40;;;;;;5077081;28;20389;-75
2021/05/08 11:18:33;;;;;;;4.57;1.13;;;19.90;55.60;;;;;;5071585;28;20376;-77
2021/05/08 11:21:21;;;;;;;2.63;1.25;;;20.00;55.70;;;;;;5087573;28;20020;-74
2021/05/08 11:23:47;;;;;;;3.72;1.08;;;20.00;54.50;;;;;;5063999;28;20032;-80
2021/05/08 11:26:25;;;;;;;4.88;1.00;;;20.10;54.60;;;;;;5088801;28;20519;-82
2021/05/08 11:28:57;;;;;;;2.30;1.10;;;20.10;54.60;;;;;;5082631;28;20016;-81
2021/05/08 11:31:32;;;;;;;4.13;1.10;;;20.10;54.70;;;;;;5078940;28;20028;-80
2021/05/08 11:34:11;;;;;;;2.65;0.90;;;20.10;54.60;;;;;;5089405;28;20032;-80
2021/05/08 11:37:02;;;;;;;3.00;0.80;;;20.20;54.60;;;;;;5080893;28;20024;-73
2021/05/08 11:39:33;;;;;;;2.55;0.88;;;20.30;54.60;;;;;;5077463;28;20031;-79
2021/05/08 11:42:23;;;;;;;5.15;1.05;;;20.30;54.60;;;;;;5089141;28;20035;-80
2021/05/08 11:45:00;;;;;;;3.63;0.70;;;20.40;54.50;;;;;;5076942;28;20028;-77
2021/05/08 11:47:35;;;;;;;3.13;0.90;;;20.40;54.40;;;;;;5087129;28;20035;-78
2021/05/08 11:50:19;;;;;;;3.53;1.20;;;20.50;55.60;;;;;;5076031;28;20052;-74
2021/05/08 11:52:52;;;;;;;2.00;1.13;;;20.60;54.80;;;;;;5084568;28;20077;-74
2021/05/08 11:55:25;;;;;;;2.65;0.80;;;20.70;54.50;;;;;;5078667;28;20023;-73
2021/05/08 11:57:54;;;;;;;2.85;0.88;;;20.80;54.10;;;;;;5081840;28;20132;-82
2021/05/08 12:00:22;;;;;;;4.10;0.93;;;20.90;54.20;;;;;;5076060;28;20122;-78
2021/05/08 12:02:49;;;;;;;4.22;0.90;;;20.90;54.00;;;;;;5081707;28;20019;-74
2021/05/08 12:05:15;;;;;;;3.33;0.70;;;21.00;54.00;;;;;;5087647;28;20028;-76
2021/05/08 12:07:43;;;;;;;1.92;1.02;;;21.00;54.10;;;;;;5075297;28;20616;-77
2021/05/08 12:10:16;;;;;;;3.97;1.45;;;21.00;54.10;;;;;;5088592;28;20012;-77
2021/05/08 12:12:57;;;;;;;2.88;1.20;;;21.00;54.20;;;;;;5080089;28;20120;-79
2021/05/08 12:15:30;;;;;;;3.05;0.90;;;21.00;54.30;;;;;;5077968;28;20024;-79
2021/05/08 12:17:57;;;;;;;4.45;1.15;;;21.00;54.60;;;;;;5088250;28;20012;-76
2021/05/08 12:20:25;;;;;;;3.90;1.10;;;21.00;54.70;;;;;;5077971;28;20492;-79
2021/05/08 12:22:53;;;;;;;4.25;0.93;;;21.00;55.00;;;;;;5078189;28;20012;-76
2021/05/08 12:25:23;;;;;;;2.83;1.20;;;20.90;55.10;;;;;;5076668;28;20028;-76
2021/05/08 12:27:49;;;;;;;1.83;0.93;;;20.90;55.30;;;;;;5088093;28;20036;-75
2021/05/08 12:30:16;;;;;;;4.20;1.05;;;20.90;55.30;;;;;;5076479;28;20024;-79
2021/05/08 12:32:52;;;;;;;4.70;1.08;;;20.90;55.50;;;;;;5083417;28;20546;-72
2021/05/08 12:35:20;;;;;;;5.78;1.58;;;20.80;55.60;;;;;;5085487;28;20024;-76
2021/05/08 12:37:46;;;;;;;6.20;1.83;;;20.80;55.70;;;;;;5074825;28;20114;-74
2021/05/08 12:40:12;;;;;;;6.93;1.73;;;20.70;55.70;;;;;;5084011;28;20395;-76
2021/05/08 12:42:46;;;;;;;3.78;1.42;;;20.70;56.00;;;;;;5083696;28;20553;-76
2021/05/08 12:45:13;;;;;;;3.35;1.85;;;20.80;56.20;;;;;;5081766;28;20089;-78
2021/05/08 12:47:47;;;;;;;4.50;1.38;;;20.80;56.40;;;;;;5070491;28;20039;-74
2021/05/08 12:50:25;;;;;;;6.07;1.80;;;20.80;56.30;;;;;;5073551;28;20020;-75
2021/05/08 12:53:00;;;;;;;3.50;1.60;;;20.70;56.30;;;;;;5081654;28;20031;-71
2021/05/08 12:55:36;;;;;;;3.05;1.35;;;20.70;56.30;;;;;;5084816;28;20031;-76
2021/05/08 12:58:10;;;;;;;4.35;1.73;;;20.70;56.40;;;;;;5075031;28;20024;-70
2021/05/08 13:00:53;;;;;;;3.95;1.45;;;20.70;56.40;;;;;;5071235;28;20407;-72
2021/05/08 13:06:03;;;;;;;5.55;1.45;;;20.60;56.60;;;;;;5070520;28;20481;-71
2021/05/08 13:08:48;;;;;;;3.90;1.33;;;20.70;57.10;;;;;;5071330;28;20484;-75
2021/05/08 13:11:49;;;;;;;3.47;1.63;;;20.70;56.40;;;;;;5070878;28;20012;-78
2021/05/08 13:14:37;;;;;;;2.88;1.40;;;20.80;56.50;;;;;;4989740;28;20509;-79
2021/05/08 13:17:05;;;;;;;3.50;1.20;;;20.90;56.30;;;;;;5064999;28;20123;-78
2021/05/08 13:19:31;;;;;;;5.45;2.20;;;21.00;56.60;;;;;;5071124;28;20037;-77
2021/05/08 13:21:57;;;;;;;4.03;1.60;;;20.90;57.70;;;;;;5072177;28;20029;-80
2021/05/08 13:24:30;;;;;;;3.53;1.30;;;21.00;57.30;;;;;;5072493;28;20016;-82
2021/05/08 13:26:56;;;;;;;2.67;1.23;;;21.00;56.90;;;;;;5070827;28;20104;-78
2021/05/08 13:29:22;;;;;;;7.03;1.83;;;21.00;56.70;;;;;;5070419;28;20377;-81
2021/05/08 13:31:48;;;;;;;4.65;1.45;;;21.00;56.70;;;;;;5081052;28;20024;-80
2021/05/08 13:34:13;;;;;;;5.45;2.17;;;21.00;56.80;;;;;;5086035;28;20091;-80